createdAt,value
2022-09-13T00:00:59.548Z,12.64
2022-09-13T00:03:36.315Z,12.61
2022-09-13T00:06:12.540Z,12.59
2022-09-13T00:08:39.753Z,12.58
2022-09-13T00:11:07.196Z,12.55
2022-09-13T00:13:34.918Z,12.53
2022-09-13T00:16:03.386Z,12.51
2022-09-13T00:18:30.504Z,12.50
2022-09-13T00:21:13.569Z,12.47
2022-09-13T00:23:44.131Z,12.43
2022-09-13T00:26:16.865Z,12.40
2022-09-13T00:28:44.827Z,12.36
2022-09-13T00:31:12.351Z,12.31
2022-09-13T00:33:39.324Z,12.29
2022-09-13T00:36:08.847Z,12.26
2022-09-13T00:38:36.903Z,12.22
2022-09-13T00:41:07.203Z,12.18
2022-09-13T00:43:42.999Z,12.15
2022-09-13T00:46:13.434Z,12.11
2022-09-13T00:48:40.586Z,12.06
2022-09-13T00:51:09.258Z,12.02
2022-09-13T00:53:40.979Z,11.99
2022-09-13T00:56:15.361Z,11.94
2022-09-13T00:58:58.085Z,11.88
2022-09-13T01:01:33.231Z,11.82
2022-09-13T01:04:02.630Z,11.75
2022-09-13T01:06:33.127Z,11.70
2022-09-13T01:09:03.309Z,11.63
2022-09-13T01:11:39.042Z,11.57
2022-09-13T01:14:08.399Z,11.51
2022-09-13T01:16:35.305Z,11.46
2022-09-13T01:19:02.656Z,11.40
2022-09-13T01:21:54.357Z,11.34
2022-09-13T01:24:58.700Z,11.25
2022-09-13T01:27:38.522Z,11.17
2022-09-13T01:30:07.433Z,11.07
2022-09-13T01:32:57.568Z,11.00
2022-09-13T01:35:42.883Z,10.92
2022-09-13T01:38:10.028Z,10.85
2022-09-13T01:40:43.625Z,10.78
2022-09-13T01:43:35.438Z,10.72
2022-09-13T01:46:13.020Z,10.65
2022-09-13T01:48:52.815Z,10.58
2022-09-13T01:51:28.006Z,10.52
2022-09-13T01:54:14.898Z,10.46
2022-09-13T01:56:52.195Z,10.39
2022-09-13T01:59:44.404Z,10.36
2022-09-13T02:02:17.630Z,10.31
2022-09-13T02:04:53.979Z,10.26
2022-09-13T02:07:32.915Z,10.20
2022-09-13T02:10:07.008Z,10.15
2022-09-13T02:12:37.632Z,10.10
2022-09-13T02:15:16.412Z,10.05
2022-09-13T02:18:05.961Z,9.99
2022-09-13T02:20:41.469Z,9.92
2022-09-13T02:23:30.734Z,9.82
2022-09-13T02:26:01.196Z,9.78
2022-09-13T02:28:36.080Z,9.72
2022-09-13T02:31:07.086Z,9.67
2022-09-13T02:33:38.700Z,9.62
2022-09-13T02:36:09.956Z,9.57
2022-09-13T02:38:49.128Z,9.51
2022-09-13T02:41:45.703Z,9.45
2022-09-13T02:44:33.623Z,9.37
2022-09-13T02:47:15.449Z,9.31
2022-09-13T02:49:52.771Z,9.26
2022-09-13T02:52:24.426Z,9.22
2022-09-13T02:55:04.655Z,9.18
2022-09-13T02:57:48.525Z,9.14
2022-09-13T03:00:15.454Z,9.10
2022-09-13T03:02:45.428Z,9.07
2022-09-13T03:05:12.584Z,9.02
2022-09-13T03:07:41.750Z,9.00
2022-09-13T03:10:13.174Z,8.97
2022-09-13T03:12:49.169Z,8.94
2022-09-13T03:15:18.517Z,8.90
2022-09-13T03:18:06.637Z,8.88
2022-09-13T03:20:52.243Z,8.86
2022-09-13T03:23:47.392Z,8.83
2022-09-13T03:26:28.274Z,8.81
2022-09-13T03:29:27.198Z,8.79
2022-09-13T03:32:00.701Z,8.75
2022-09-13T03:34:58.777Z,8.73
2022-09-13T03:37:45.753Z,8.70
2022-09-13T03:40:21.267Z,8.68
2022-09-13T03:42:55.588Z,8.65
2022-09-13T03:45:30.805Z,8.63
2022-09-13T03:47:58.467Z,8.59
2022-09-13T03:50:26.383Z,8.56
2022-09-13T03:53:03.998Z,8.54
2022-09-13T03:55:33.181Z,8.55
2022-09-13T03:58:00.633Z,8.58
2022-09-13T04:00:28.985Z,8.62
2022-09-13T04:02:55.611Z,8.67
2022-09-13T04:05:22.394Z,8.70
2022-09-13T04:07:49.433Z,8.70
2022-09-13T04:10:16.065Z,8.70
2022-09-13T04:12:42.962Z,8.69
2022-09-13T04:15:09.773Z,8.70
2022-09-13T04:17:36.483Z,8.72
2022-09-13T04:20:04.991Z,8.77
2022-09-13T04:22:32.260Z,8.84
2022-09-13T04:25:02.581Z,8.90
2022-09-13T04:27:29.509Z,8.97
2022-09-13T04:29:56.267Z,9.03
2022-09-13T04:32:23.240Z,9.11
2022-09-13T04:34:49.926Z,9.20
2022-09-13T04:37:16.611Z,9.28
2022-09-13T04:39:43.313Z,9.37
2022-09-13T04:42:10.844Z,9.46
2022-09-13T04:44:37.677Z,9.55
2022-09-13T04:47:05.985Z,9.63
2022-09-13T04:49:33.379Z,9.73
2022-09-13T04:51:59.990Z,9.82
2022-09-13T04:54:26.792Z,9.90
2022-09-13T04:56:54.261Z,9.98
2022-09-13T04:59:20.935Z,10.08
2022-09-13T05:01:47.799Z,10.23
2022-09-13T05:04:14.748Z,10.35
2022-09-13T05:06:41.611Z,10.49
2022-09-13T05:09:13.009Z,10.62
2022-09-13T05:11:40.278Z,10.77
2022-09-13T05:14:10.341Z,10.88
2022-09-13T05:16:37.495Z,10.97
2022-09-13T05:19:04.213Z,11.08
2022-09-13T05:21:31.175Z,11.23
2022-09-13T05:23:58.427Z,11.35
2022-09-13T05:26:30.659Z,11.45
2022-09-13T05:28:58.868Z,11.60
2022-09-13T05:31:30.159Z,11.73
2022-09-13T05:34:03.258Z,11.89
2022-09-13T05:36:30.445Z,12.03
2022-09-13T05:39:26.093Z,12.19
2022-09-13T05:41:45.540Z,12.37
2022-09-13T05:44:13.736Z,12.52
2022-09-13T05:46:42.348Z,12.63
2022-09-13T05:49:13.257Z,12.74
2022-09-13T05:51:40.138Z,12.86
2022-09-13T05:54:06.940Z,12.94
2022-09-13T05:56:33.748Z,13.01
2022-09-13T05:59:00.345Z,13.07
2022-09-13T06:01:28.591Z,13.14
2022-09-13T06:03:57.852Z,13.22
2022-09-13T06:06:25.357Z,13.28
2022-09-13T06:08:53.564Z,13.35
2022-09-13T06:11:20.477Z,13.40
2022-09-13T06:13:48.334Z,13.45
2022-09-13T06:16:16.772Z,13.48
2022-09-13T06:18:44.313Z,13.53
2022-09-13T06:21:19.157Z,13.60
2022-09-13T06:23:50.416Z,13.66
2022-09-13T06:26:19.349Z,13.70
2022-09-13T06:28:48.525Z,13.71
2022-09-13T06:31:17.312Z,13.70
2022-09-13T06:33:45.028Z,13.68
2022-09-13T06:36:15.798Z,13.70
2022-09-13T06:38:43.042Z,13.75
2022-09-13T06:41:12.690Z,13.79
2022-09-13T06:43:42.997Z,13.91
2022-09-13T06:46:13.138Z,14.06
2022-09-13T06:48:41.497Z,14.22
2022-09-13T06:51:11.444Z,14.41
2022-09-13T06:53:38.840Z,14.60
2022-09-13T06:56:12.643Z,14.75
2022-09-13T06:58:41.861Z,14.86
2022-09-13T07:01:16.860Z,15.00
2022-09-13T07:03:49.387Z,15.12
2022-09-13T07:06:22.633Z,15.25
2022-09-13T07:08:51.585Z,15.48
2022-09-13T07:11:21.507Z,15.74
2022-09-13T07:13:56.679Z,16.06
2022-09-13T07:16:26.614Z,16.34
2022-09-13T07:18:59.288Z,16.58
2022-09-13T07:21:27.574Z,16.86
2022-09-13T07:23:55.596Z,17.13
2022-09-13T07:26:23.602Z,17.34
2022-09-13T07:28:53.331Z,17.60
2022-09-13T07:31:26.429Z,17.82
2022-09-13T07:33:56.034Z,17.97
2022-09-13T07:36:24.431Z,18.13
2022-09-13T07:38:51.471Z,18.19
2022-09-13T07:41:21.145Z,18.17
2022-09-13T07:43:48.894Z,18.18
2022-09-13T07:46:18.763Z,18.15
2022-09-13T07:48:46.771Z,18.11
2022-09-13T07:51:22.092Z,18.08
2022-09-13T07:53:56.367Z,18.05
2022-09-13T07:56:33.272Z,18.07
2022-09-13T07:59:02.952Z,18.15
2022-09-13T08:01:35.694Z,18.28
2022-09-13T08:04:05.356Z,18.46
2022-09-13T08:06:33.988Z,18.68
2022-09-13T08:09:01.859Z,18.89
2022-09-13T08:11:32.297Z,19.09
2022-09-13T08:14:00.321Z,19.23
2022-09-13T08:16:30.903Z,19.26
2022-09-13T08:19:00.589Z,19.22
2022-09-13T08:21:32.229Z,19.26
2022-09-13T08:24:00.074Z,19.27
2022-09-13T08:26:28.755Z,19.18
2022-09-13T08:28:58.175Z,19.22
2022-09-13T08:34:20.843Z,19.40
2022-09-13T08:36:47.637Z,19.37
2022-09-13T08:39:14.520Z,19.32
2022-09-13T08:41:48.272Z,19.33
2022-09-13T08:44:27.299Z,19.40
2022-09-13T08:47:17.815Z,19.50
2022-09-13T08:49:48.069Z,19.65
2022-09-13T08:52:14.804Z,19.73
2022-09-13T08:54:43.136Z,19.81
2022-09-13T08:57:19.142Z,19.97
2022-09-13T09:00:22.483Z,20.15
2022-09-13T09:03:04.510Z,20.41
2022-09-13T09:05:39.620Z,20.55
2022-09-13T09:08:13.592Z,20.67
2022-09-13T09:10:52.941Z,20.68
2022-09-13T09:13:55.981Z,20.66
2022-09-13T09:16:39.757Z,20.63
2022-09-13T09:19:33.867Z,20.72
2022-09-13T09:22:05.145Z,20.93
2022-09-13T09:24:36.793Z,21.05
2022-09-13T09:27:15.187Z,21.03
2022-09-13T09:29:45.890Z,20.95
2022-09-13T09:32:46.596Z,21.01
2022-09-13T09:35:28.078Z,21.07
2022-09-13T09:38:21.606Z,21.09
2022-09-13T09:40:48.432Z,21.14
2022-09-13T09:43:20.438Z,21.34
2022-09-13T09:45:48.828Z,21.50
2022-09-13T09:48:21.983Z,21.63
2022-09-13T09:50:54.383Z,21.75
2022-09-13T09:53:37.196Z,21.80
2022-09-13T09:56:22.626Z,21.74
2022-09-13T09:58:53.276Z,21.56
2022-09-13T10:01:29.472Z,21.49
2022-09-13T10:04:11.895Z,21.50
2022-09-13T10:06:43.065Z,21.45
2022-09-13T10:09:12.610Z,21.28
2022-09-13T10:11:49.590Z,21.14
2022-09-13T10:14:35.560Z,20.99
2022-09-13T10:17:21.207Z,20.79
2022-09-13T10:20:20.807Z,20.72
2022-09-13T10:23:16.056Z,20.90
2022-09-13T10:25:54.518Z,21.24
2022-09-13T10:28:21.976Z,21.53
2022-09-13T10:30:57.614Z,21.63
2022-09-13T10:33:29.217Z,21.58
2022-09-13T10:35:59.937Z,21.46
2022-09-13T10:38:45.440Z,21.31
2022-09-13T10:41:23.704Z,21.11
2022-09-13T10:44:01.268Z,20.91
2022-09-13T10:46:34.284Z,20.83
2022-09-13T10:49:01.073Z,20.95
2022-09-13T10:51:28.003Z,20.96
2022-09-13T10:54:24.272Z,20.86
2022-09-13T10:56:51.513Z,20.79
2022-09-13T10:59:28.986Z,20.87
2022-09-13T11:02:30.232Z,20.87
2022-09-13T11:05:00.762Z,20.82
2022-09-13T11:07:39.545Z,20.74
2022-09-13T11:10:07.226Z,20.57
2022-09-13T11:12:52.243Z,20.32
2022-09-13T11:15:42.901Z,20.20
2022-09-13T11:18:28.004Z,20.17
2022-09-13T11:21:21.251Z,20.11
2022-09-13T11:24:02.957Z,20.04
2022-09-13T11:26:52.002Z,20.03
2022-09-13T11:29:24.661Z,20.09
2022-09-13T11:32:12.853Z,20.15
2022-09-13T11:34:55.714Z,20.16
2022-09-13T11:37:58.026Z,20.14
2022-09-13T11:40:34.361Z,20.10
2022-09-13T11:43:21.264Z,19.99
2022-09-13T11:45:56.033Z,19.84
2022-09-13T11:48:28.668Z,19.73
2022-09-13T11:51:10.604Z,19.63
2022-09-13T11:53:49.742Z,19.60
2022-09-13T11:56:26.279Z,19.65
2022-09-13T11:59:00.524Z,19.70
2022-09-13T12:01:40.074Z,19.77
2022-09-13T12:04:16.948Z,19.84
2022-09-13T12:06:50.393Z,19.91
2022-09-13T12:09:29.703Z,19.98
2022-09-13T12:12:07.341Z,20.04
2022-09-13T12:14:57.929Z,20.12
2022-09-13T12:17:45.045Z,20.19
2022-09-13T12:20:32.875Z,20.21
2022-09-13T12:23:02.573Z,20.25
2022-09-13T12:25:48.021Z,20.26
2022-09-13T12:28:42.208Z,20.24
2022-09-13T12:31:38.708Z,20.25
2022-09-13T12:34:09.976Z,20.28
2022-09-13T12:36:51.332Z,20.41
2022-09-13T12:39:37.739Z,20.50
2022-09-13T12:42:41.855Z,20.60
2022-09-13T12:45:20.661Z,20.72
2022-09-13T12:47:53.468Z,20.72
2022-09-13T12:50:44.347Z,20.68
2022-09-13T12:53:35.460Z,20.62
2022-09-13T12:56:14.395Z,20.59
2022-09-13T12:59:04.486Z,20.48
2022-09-13T13:01:33.950Z,20.40
2022-09-13T13:04:18.231Z,20.29
2022-09-13T13:06:56.361Z,20.21
2022-09-13T13:09:41.971Z,20.18
2022-09-13T13:12:39.872Z,20.17
2022-09-13T13:15:17.500Z,20.20
2022-09-13T13:17:45.788Z,20.20
2022-09-13T13:20:57.399Z,20.23
2022-09-13T13:23:34.716Z,20.28
2022-09-13T13:26:10.851Z,20.31
2022-09-13T13:28:43.744Z,20.43
2022-09-13T13:31:37.735Z,20.69
2022-09-13T13:34:13.433Z,21.05
2022-09-13T13:36:40.489Z,21.34
2022-09-13T13:39:22.472Z,21.56
2022-09-13T13:42:02.530Z,21.78
2022-09-13T13:44:31.681Z,22.12
2022-09-13T13:47:08.869Z,23.10
2022-09-13T13:49:39.003Z,24.19
2022-09-13T13:52:08.492Z,24.28
2022-09-13T13:54:58.932Z,24.08
2022-09-13T13:57:31.584Z,23.92
2022-09-13T14:00:21.773Z,23.78
2022-09-13T14:02:54.433Z,23.54
2022-09-13T14:05:43.085Z,23.23
2022-09-13T14:08:25.814Z,22.90
2022-09-13T14:11:30.198Z,22.77
2022-09-13T14:14:24.706Z,22.76
2022-09-13T14:17:32.667Z,22.68
2022-09-13T14:20:26.087Z,22.63
2022-09-13T14:23:11.452Z,22.69
2022-09-13T14:25:38.700Z,22.77
2022-09-13T14:28:07.206Z,22.83
2022-09-13T14:30:38.765Z,22.83
2022-09-13T14:33:05.758Z,22.75
2022-09-13T14:35:36.327Z,22.72
2022-09-13T14:38:11.287Z,22.65
2022-09-13T14:40:38.009Z,22.54
2022-09-13T14:43:20.739Z,22.46
2022-09-13T14:45:52.462Z,22.38
2022-09-13T14:48:28.050Z,22.23
2022-09-13T14:50:59.939Z,22.06
2022-09-13T14:53:30.557Z,21.84
2022-09-13T14:56:06.763Z,21.61
2022-09-13T14:58:54.040Z,21.38
2022-09-13T15:01:35.496Z,21.12
2022-09-13T15:04:04.769Z,20.92
2022-09-13T15:06:34.787Z,20.79
2022-09-13T15:09:10.927Z,20.68
2022-09-13T15:11:56.069Z,20.58
2022-09-13T15:14:31.946Z,20.47
2022-09-13T15:17:02.537Z,20.34
2022-09-13T15:19:34.913Z,20.26
2022-09-13T15:22:13.699Z,20.15
2022-09-13T15:24:46.508Z,20.07
2022-09-13T15:27:20.460Z,19.99
2022-09-13T15:30:21.083Z,19.95
2022-09-13T15:32:47.961Z,19.89
2022-09-13T15:35:36.382Z,19.83
2022-09-13T15:38:30.374Z,19.74
2022-09-13T15:41:09.917Z,19.63
2022-09-13T15:43:36.923Z,19.53
2022-09-13T15:46:05.344Z,19.42
2022-09-13T15:48:34.425Z,19.29
2022-09-13T15:51:08.803Z,19.14
2022-09-13T15:53:38.454Z,18.95
2022-09-13T15:56:07.338Z,18.76
2022-09-13T15:58:35.261Z,18.61
2022-09-13T16:01:02.181Z,18.48
2022-09-13T16:03:28.926Z,18.34
2022-09-13T16:05:55.794Z,18.20
2022-09-13T16:08:23.850Z,18.07
2022-09-13T16:10:50.915Z,17.95
2022-09-13T16:13:17.604Z,17.80
2022-09-13T16:15:44.306Z,17.61
2022-09-13T16:18:11.441Z,17.45
2022-09-13T16:20:38.187Z,17.30
2022-09-13T16:23:04.815Z,17.17
2022-09-13T16:25:31.628Z,17.04
2022-09-13T16:27:59.196Z,16.93
2022-09-13T16:30:29.905Z,16.82
2022-09-13T16:32:57.133Z,16.70
2022-09-13T16:35:27.591Z,16.59
2022-09-13T16:37:54.375Z,16.49
2022-09-13T16:40:21.591Z,16.39
2022-09-13T16:42:48.311Z,16.32
2022-09-13T16:45:15.519Z,16.24
2022-09-13T16:47:42.717Z,16.18
2022-09-13T16:50:09.879Z,16.10
2022-09-13T16:52:37.397Z,16.02
2022-09-13T16:55:05.410Z,15.95
2022-09-13T16:57:32.899Z,15.89
2022-09-13T17:00:00.182Z,15.83
2022-09-13T17:02:26.978Z,15.74
2022-09-13T17:04:53.891Z,15.70
2022-09-13T17:07:20.900Z,15.64
2022-09-13T17:09:47.731Z,15.59
2022-09-13T17:12:14.421Z,15.51
2022-09-13T17:14:42.997Z,15.43
2022-09-13T17:17:09.762Z,15.34
2022-09-13T17:19:36.485Z,15.27
2022-09-13T17:22:07.435Z,15.20
2022-09-13T17:24:34.211Z,15.14
2022-09-13T17:27:01.003Z,15.07
2022-09-13T17:29:45.996Z,15.01
2022-09-13T17:32:23.133Z,14.94
2022-09-13T17:34:55.406Z,14.88
2022-09-13T17:37:22.579Z,14.81
2022-09-13T17:39:52.125Z,14.76
2022-09-13T17:42:23.194Z,14.70
2022-09-13T17:44:56.656Z,14.65
2022-09-13T17:47:29.593Z,14.59
2022-09-13T17:50:25.517Z,14.51
2022-09-13T17:53:08.398Z,14.45
2022-09-13T17:56:10.353Z,14.35
2022-09-13T17:58:40.093Z,14.27
2022-09-13T18:01:10.775Z,14.20
2022-09-13T18:03:39.930Z,14.12
2022-09-13T18:06:11.327Z,14.03
2022-09-13T18:08:45.017Z,13.93
2022-09-13T18:11:22.375Z,13.85
2022-09-13T18:13:54.112Z,13.77
2022-09-13T18:16:26.926Z,13.68
2022-09-13T18:18:59.491Z,13.60
2022-09-13T18:21:27.029Z,13.52
2022-09-13T18:24:01.057Z,13.46
2022-09-13T18:26:30.637Z,13.37
2022-09-13T18:29:02.491Z,13.29
2022-09-13T18:31:31.435Z,13.19
2022-09-13T18:34:03.123Z,13.10
2022-09-13T18:36:32.922Z,13.00
2022-09-13T18:39:04.202Z,12.94
2022-09-13T18:41:36.815Z,12.86
2022-09-13T18:44:04.501Z,12.77
2022-09-13T18:46:33.960Z,12.71
2022-09-13T18:49:01.683Z,12.65
2022-09-13T18:51:35.320Z,12.61
2022-09-13T18:54:05.911Z,12.57
2022-09-13T18:56:36.193Z,12.52
2022-09-13T18:59:07.356Z,12.48
2022-09-13T19:01:41.581Z,12.44
2022-09-13T19:04:13.920Z,12.41
2022-09-13T19:06:48.998Z,12.38
2022-09-13T19:09:20.307Z,12.34
2022-09-13T19:11:51.916Z,12.30
2022-09-13T19:14:22.555Z,12.30
2022-09-13T19:17:00.361Z,12.28
2022-09-13T19:19:31.516Z,12.26
2022-09-13T19:22:06.683Z,12.24
2022-09-13T19:24:36.938Z,12.21
2022-09-13T19:27:08.012Z,12.19
2022-09-13T19:29:40.690Z,12.17
2022-09-13T19:32:19.814Z,12.13
2022-09-13T19:34:47.396Z,12.07
2022-09-13T19:37:35.340Z,12.02
2022-09-13T19:40:03.766Z,11.96
2022-09-13T19:42:30.853Z,11.90
2022-09-13T19:44:58.103Z,11.85
2022-09-13T19:50:12.259Z,11.76
2022-09-13T19:52:39.530Z,11.71
2022-09-13T19:55:13.221Z,11.67
2022-09-13T19:57:48.026Z,11.63
2022-09-13T20:00:19.192Z,11.57
2022-09-13T20:02:51.870Z,11.52
2022-09-13T20:05:27.394Z,11.48
2022-09-13T20:07:55.022Z,11.43
2022-09-13T20:10:23.353Z,11.36
2022-09-13T20:12:56.228Z,11.32
2022-09-13T20:15:27.596Z,11.29
2022-09-13T20:17:54.862Z,11.25
2022-09-13T20:20:22.727Z,11.21
2022-09-13T20:22:51.914Z,11.19
2022-09-13T20:25:19.155Z,11.15
2022-09-13T20:27:46.402Z,11.12
2022-09-13T20:30:14.786Z,11.08
2022-09-13T20:32:43.465Z,11.03
2022-09-13T20:35:10.360Z,10.99
2022-09-13T20:37:37.822Z,10.96
2022-09-13T20:40:05.378Z,10.92
2022-09-13T20:42:33.199Z,10.88
2022-09-13T20:45:00.265Z,10.83
2022-09-13T20:47:27.460Z,10.80
2022-09-13T20:49:54.613Z,10.77
2022-09-13T20:52:21.791Z,10.73
2022-09-13T20:54:48.997Z,10.75
2022-09-13T20:57:16.130Z,10.73
2022-09-13T20:59:43.729Z,10.72
2022-09-13T21:02:10.679Z,10.70
2022-09-13T21:04:37.394Z,10.70
2022-09-13T21:07:22.716Z,10.70
2022-09-13T21:09:49.473Z,10.69
2022-09-13T21:12:16.323Z,10.68
2022-09-13T21:14:43.097Z,10.68
2022-09-13T21:17:09.973Z,10.67
2022-09-13T21:19:36.750Z,10.66
2022-09-13T21:22:03.771Z,10.67
2022-09-13T21:24:31.174Z,10.67
2022-09-13T21:27:00.532Z,10.67
2022-09-13T21:29:28.183Z,10.67
2022-09-13T21:31:55.439Z,10.66
2022-09-13T21:34:24.129Z,10.65
2022-09-13T21:36:50.930Z,10.64
2022-09-13T21:39:18.672Z,10.61
2022-09-13T21:41:47.060Z,10.64
2022-09-13T21:44:13.784Z,10.65
2022-09-13T21:46:46.458Z,10.65
2022-09-13T21:49:13.708Z,10.66
2022-09-13T21:51:49.240Z,10.66
2022-09-13T21:54:18.625Z,10.66
2022-09-13T21:56:54.193Z,10.66
2022-09-13T21:59:22.330Z,10.65
2022-09-13T22:01:51.881Z,10.65
2022-09-13T22:04:22.076Z,10.65
2022-09-13T22:06:51.632Z,10.65
2022-09-13T22:09:19.755Z,10.65
2022-09-13T22:11:48.969Z,10.65
2022-09-13T22:14:19.370Z,10.66
2022-09-13T22:16:46.365Z,10.67
2022-09-13T22:19:14.836Z,10.67
2022-09-13T22:21:44.399Z,10.67
2022-09-13T22:24:20.064Z,10.68
2022-09-13T22:26:50.664Z,10.67
2022-09-13T22:29:18.417Z,10.67
2022-09-13T22:31:46.878Z,10.67
2022-09-13T22:34:17.113Z,10.66
2022-09-13T22:36:44.294Z,10.64
2022-09-13T22:39:13.339Z,10.62
2022-09-13T22:41:41.226Z,10.59
2022-09-13T22:44:08.278Z,10.58
2022-09-13T22:46:40.723Z,10.57
2022-09-13T22:49:12.748Z,10.57
2022-09-13T22:51:40.172Z,10.56
2022-09-13T22:54:08.013Z,10.54
2022-09-13T22:56:36.710Z,10.53
2022-09-13T22:59:21.550Z,10.52
2022-09-13T23:01:49.104Z,10.50
2022-09-13T23:04:16.065Z,10.47
2022-09-13T23:06:43.712Z,10.45
2022-09-13T23:09:13.841Z,10.43
2022-09-13T23:11:41.526Z,10.40
2022-09-13T23:14:11.596Z,10.37
2022-09-13T23:16:44.147Z,10.32
2022-09-13T23:19:13.342Z,10.27
2022-09-13T23:21:40.963Z,10.24
2022-09-13T23:24:12.518Z,10.20
2022-09-13T23:26:39.452Z,10.14
2022-09-13T23:29:08.026Z,10.09
2022-09-13T23:31:38.520Z,10.05
2022-09-13T23:34:07.359Z,10.01
2022-09-13T23:36:36.969Z,9.96
2022-09-13T23:39:06.108Z,9.91
2022-09-13T23:41:33.787Z,9.87
2022-09-13T23:44:01.899Z,9.83
2022-09-13T23:46:28.903Z,9.77
2022-09-13T23:48:55.987Z,9.72
2022-09-13T23:51:24.655Z,9.67
2022-09-13T23:53:56.128Z,9.63
2022-09-13T23:56:25.207Z,9.59
2022-09-13T23:58:52.722Z,9.55
